FYGA4: White River At Fayetteville, AR

                                SHEF ID:       FYGA4     White River near Fayetteville, A
STATION TYPE: Stream Gauge

PRECIP STAGE RIV-FLOW WTR-TEMP DIS-OXY PH CONDUCT BAT-LOAD
in ft cfs F mg/l su umho/cm volt
Ccp-Rev Ccp-Rev Ccp-Rev Ccp-Rev Ccp-Rev Ccp-Rev Ccp-Rev Ccp-Rev
(America/Chicago)
11/24 00:00 0.00 2.19 76 58.89 7.96 7.45 175 12.65
11/24 01:00 0.01 2.19 76 58.73 8.01 7.46 176 12.65
11/24 02:00 0.10 2.19 76 58.53 8.07 7.45 171 12.65
11/24 03:00 0.17 2.21 79 58.42 8.18 7.46 167 12.65
11/24 04:00 0.04 2.29 94 58.39 8.22 7.46 160 12.65
11/24 05:00 0.00 2.32 100 58.37 8.23 7.45 161 12.57
11/24 06:00 0.01 2.28 92 58.39 8.25 7.45 158 12.57
11/24 07:00 0.00 2.27 90 58.35 8.19 7.44 164 12.57
11/24 08:00 0.00 2.27 90 58.37 8.21 7.44 166 12.57
11/24 09:00 0.01 2.29 94 58.41 8.28 7.46 168 12.57
11/24 10:00 0.15 2.37 110 58.30 8.44 7.50 170 12.49
11/24 11:00 0.00 2.63 172 58.51 8.62 7.51 160 12.65
11/24 12:00 0.00 2.47 132 58.69 8.73 7.54 177 13.21
11/24 13:00 0.00 2.43 123 58.89 8.74 7.56 190 13.29
11/24 14:00 0.00 2.41 118 58.95 8.63 7.56 192 12.97
11/24 15:00 0.00 2.42 120 58.91 8.51 7.54 191 12.89
11/24 16:00 0.00 2.45 127 58.89 8.46 7.54 187 12.81
11/24 17:00 0.00 2.47 132 58.80 8.40 7.53 187 12.81
11/24 18:00 0.01 2.49 137 58.69 8.29 7.53 195 12.73
11/24 19:00 0.15 2.53 146 58.59 8.30 7.53 196 12.73
11/24 20:00 0.00 2.53 146 58.53 8.27 7.50 190 12.65
11/24 21:00 0.00 2.53 146 58.48 8.29 7.50 188 12.65
11/24 22:00 0.01 2.53 146 58.44 8.30 7.49 187 12.65
11/24 23:00 0.00 2.53 146 58.41 8.34 7.50 185 12.57
Data processed at Tue 25Nov2025 05:10 GMT

NOTICE: If you are parsing this page

Please convert to using our Data API. Starting January 1st, 2026 we will be migrating to: https://water.usace.army.mil with modern pages rendered in JavaScript. You will no longer be able to scrape this page! CWMSDataAPI (CDA)

Timeseries IDs (TSIDs)

TSIDs used from left to right in the data table
FAYE.Precip-Inc.Total.1Hour.1Hour.Ccp-Rev
FAYE.Stage.Inst.1Hour.0.Ccp-Rev
FAYE.Flow.Inst.1Hour.0.Ccp-Rev
FAYE.Temp-Water.Inst.1Hour.0.Ccp-Rev
FAYE.Conc-DO.Inst.1Hour.0.Ccp-Rev
FAYE.pH.Inst.1Hour.0.Ccp-Rev
FAYE.Cond-Water.Inst.1Hour.0.Ccp-Rev
FAYE.Volt-Battery Load.Inst.1Hour.0.Ccp-Rev

                            

All information presented herein is the property of the government of the United States of America and may be revised or deleted at any time without prior notice. Dissemination of this information without the expressed written consent of the Public Affairs Office, Tulsa District U.S. Army Corps of Engineers is strictly prohibited. These data are gathered electronically and, as presented, have NOT undergone any form of quality control. These data are NOT guaranteed to be valid or correct.